| time (UTC) | temp F | wind direction | speed MPH | gust MPH | rain 1hr in | rain 24hr in | rain mn in | humidity % | barometer mb |
| 20260509161555 | 55 | 135 | 0.0 | 0.0 | 0.00 | 0.13 | 0.13 | 89 | 1010.8 |
| 20260509160054 | 55 | 136 | 0.0 | 0.0 | 0.00 | 0.13 | 0.13 | 90 | 1010.6 |
| 20260509154553 | 55 | 135 | 0.0 | 0.0 | 0.00 | 0.13 | 0.13 | 91 | 1010.7 |
| 20260509153152 | 55 | 136 | 0.0 | 0.0 | 0.00 | 0.13 | 0.13 | 93 | 1010.5 |
| 20260509151519 | 54 | 135 | 0.0 | 0.0 | 0.01 | 0.13 | 0.13 | 95 | 1010.5 |
| 20260509150017 | 53 | 136 | 0.0 | 0.0 | 0.03 | 0.13 | 0.13 | 95 | 1010.5 |
| 20260509144515 | 53 | 135 | 0.0 | 0.0 | 0.05 | 0.13 | 0.13 | 95 | 1010.8 |
| 20260509143017 | 53 | 135 | 0.0 | 0.0 | 0.07 | 0.13 | 0.13 | 95 | 1010.9 |
| 20260509141514 | 53 | 136 | 0.0 | 0.0 | 0.09 | 0.12 | 0.12 | 94 | 1010.9 |
| 20260509140014 | 53 | 135 | 0.0 | 0.0 | 0.08 | 0.10 | 0.10 | 94 | 1010.8 |
| 20260509134509 | 53 | 135 | 0.0 | 0.0 | 0.07 | 0.08 | 0.08 | 92 | 1010.9 |
| 20260509133009 | 53 | 135 | 0.0 | 0.0 | 0.05 | 0.06 | 0.06 | 90 | 1010.8 |
| 20260509131507 | 53 | 135 | 0.0 | 0.0 | 0.02 | 0.03 | 0.03 | 89 | 1010.7 |
| 20260509130018 | 53 | 135 | 0.0 | 0.0 | 0.01 | 0.02 | 0.02 | 87 | 1010.8 |
| 20260509124506 | 53 | 135 | 0.0 | 0.0 | 0.01 | 0.01 | 0.01 | 88 | 1010.8 |
| 20260509123002 | 53 | 136 | 0.0 | 0.0 | 0.01 | 0.01 | 0.01 | 87 | 1010.7 |
| 20260509121600 | 52 | 135 | 0.0 | 0.0 | 0.01 | 0.01 | 0.01 | 87 | 1011.0 |
| 20260509120100 | 52 | 135 | 0.0 | 0.0 | 0.01 | 0.01 | 0.01 | 87 | 1011.1 |
| 20260509114627 | 51 | 136 | 0.0 | 0.0 | 0.00 | 0.00 | 0.00 | 88 | 1011.2 |
| 20260509113127 | 51 | 136 | 0.0 | 0.0 | 0.00 | 0.00 | 0.00 | 88 | 1011.2 |
| 20260509111552 | 0 | 0.0 | 0.0 | 0.00 | 0.00 | 0.00 | 1010.7 | ||
| 20260509110057 | 0 | 0.0 | 0.0 | 0.00 | 0.00 | 0.00 | 1010.7 | ||
| 20260509104513 | 0 | 134 | 0.0 | 0.0 | 0.00 | 0.00 | 0.00 | 1010.7 | |
| 20260509103011 | 50 | 135 | 0.0 | 0.0 | 0.00 | 0.00 | 0.00 | 86 | 1010.4 |
| 20260509101512 | 50 | 135 | 0.0 | 0.0 | 0.00 | 0.00 | 0.00 | 86 | 1010.5 |
| 20260509100007 | 50 | 135 | 0.0 | 0.0 | 0.00 | 0.00 | 0.00 | 85 | 1010.1 |
| 20260509094506 | 50 | 136 | 0.0 | 0.0 | 0.00 | 0.00 | 0.00 | 85 | 1010.0 |
| 20260509093006 | 50 | 136 | 0.0 | 0.0 | 0.00 | 0.00 | 0.00 | 85 | 1009.8 |
| 20260509091502 | 50 | 135 | 0.0 | 0.0 | 0.00 | 0.00 | 0.00 | 84 | 1010.1 |
| 20260509090002 | 50 | 135 | 0.0 | 0.0 | 0.00 | 0.00 | 0.00 | 84 | 1010.0 |
| 20260509084619 | 50 | 135 | 0.0 | 0.0 | 0.00 | 0.00 | 0.00 | 84 | 1010.1 |
| 20260509083059 | 50 | 135 | 0.0 | 0.0 | 0.00 | 0.00 | 0.00 | 83 | 1010.1 |
| 20260509081600 | 50 | 135 | 0.0 | 0.0 | 0.00 | 0.00 | 0.00 | 83 | 1010.2 |
| 20260509080100 | 50 | 135 | 0.0 | 0.0 | 0.00 | 0.00 | 0.00 | 83 | 1010.4 |
| 20260509074556 | 51 | 135 | 0.0 | 0.0 | 0.00 | 0.00 | 0.00 | 84 | 1010.2 |
| 20260509073055 | 51 | 135 | 0.0 | 0.0 | 0.00 | 0.00 | 0.00 | 83 | 1010.1 |
| 20260509071554 | 51 | 135 | 0.0 | 0.0 | 0.00 | 0.00 | 0.00 | 84 | 1010.2 |
| 20260509070053 | 50 | 136 | 0.0 | 0.0 | 0.00 | 0.00 | 0.00 | 85 | 1010.3 |
| 20260509064557 | 51 | 135 | 0.0 | 0.0 | 0.00 | 0.00 | 0.00 | 85 | 1010.5 |
| 20260509063047 | 51 | 135 | 0.0 | 0.0 | 0.00 | 0.00 | 0.00 | 85 | 1010.5 |
| 20260509061600 | 51 | 136 | 0.0 | 0.0 | 0.00 | 0.00 | 0.00 | 83 | 1010.5 |
| 20260509060042 | 51 | 135 | 0.0 | 0.0 | 0.00 | 0.00 | 0.00 | 83 | 1010.5 |
| 20260509054546 | 51 | 136 | 0.0 | 0.0 | 0.00 | 0.00 | 0.00 | 82 | 1010.6 |
| 20260509053039 | 51 | 135 | 0.0 | 0.0 | 0.00 | 0.00 | 0.00 | 81 | 1010.8 |
| 20260509051537 | 52 | 135 | 0.0 | 0.0 | 0.00 | 0.00 | 0.00 | 82 | 1010.8 |
| 20260509050036 | 52 | 135 | 0.0 | 0.0 | 0.00 | 0.00 | 0.00 | 81 | 1010.9 |
| 20260509044534 | 52 | 135 | 0.0 | 0.0 | 0.00 | 0.00 | 0.00 | 81 | 1010.7 |
| 20260509043033 | 52 | 135 | 0.0 | 0.0 | 0.00 | 0.00 | 0.00 | 80 | 1010.8 |
| 20260509041529 | 52 | 136 | 0.0 | 0.0 | 0.00 | 0.00 | 0.00 | 78 | 1011.0 |
| 20260509040056 | 53 | 135 | 0.0 | 0.0 | 0.00 | 0.00 | 0.00 | 79 | 1011.1 |
| 20260509034556 | 53 | 135 | 0.0 | 0.0 | 0.00 | 0.00 | 0.00 | 78 | 1011.3 |
| 20260509033055 | 53 | 135 | 0.0 | 0.0 | 0.00 | 0.00 | 0.00 | 75 | 1011.1 |
| 20260509031607 | 54 | 135 | 0.0 | 0.0 | 0.00 | 0.00 | 0.00 | 73 | 1011.4 |
| 20260509030053 | 55 | 135 | 0.0 | 0.0 | 0.00 | 0.00 | 0.00 | 73 | 1011.4 |
| 20260509024553 | 56 | 135 | 0.0 | 0.0 | 0.00 | 0.00 | 0.00 | 71 | 1011.4 |
| 20260509023102 | 57 | 136 | 0.0 | 0.0 | 0.00 | 0.00 | 0.00 | 67 | 1011.2 |
| 20260509021550 | 58 | 135 | 0.0 | 0.0 | 0.00 | 0.00 | 0.00 | 66 | 1011.3 |
| 20260509020052 | 58 | 135 | 0.0 | 0.0 | 0.00 | 0.00 | 0.00 | 63 | 1011.4 |
| 20260509014548 | 58 | 135 | 0.0 | 0.0 | 0.00 | 0.00 | 0.00 | 62 | 1011.4 |
| 20260509013048 | 58 | 135 | 0.0 | 0.0 | 0.00 | 0.00 | 0.00 | 62 | 1011.7 |
| 20260509011548 | 57 | 135 | 0.0 | 0.0 | 0.00 | 0.00 | 0.00 | 63 | 1011.4 |
| 20260509010048 | 56 | 136 | 0.0 | 0.0 | 0.00 | 0.00 | 0.00 | 67 | 1011.0 |
| 20260509004545 | 56 | 136 | 0.0 | 0.0 | 0.00 | 0.00 | 0.00 | 67 | 1011.0 |
| 20260509003046 | 56 | 135 | 0.0 | 0.0 | 0.00 | 0.00 | 0.00 | 66 | 1011.0 |
| 20260509001542 | 57 | 135 | 0.0 | 0.0 | 0.00 | 0.00 | 0.00 | 63 | 1011.1 |
| 20260509000044 | 59 | 135 | 0.0 | 0.0 | 0.00 | 0.00 | 0.00 | 60 | 1010.9 |
| 20260508234543 | 60 | 135 | 0.0 | 0.0 | 0.00 | 0.00 | 0.00 | 57 | 1010.9 |
| 20260508233038 | 63 | 135 | 0.0 | 0.0 | 0.00 | 0.00 | 0.00 | 52 | 1010.6 |
| 20260508231538 | 64 | 135 | 0.0 | 0.0 | 0.00 | 0.00 | 0.00 | 52 | 1010.7 |
| 20260508230043 | 65 | 135 | 0.0 | 0.0 | 0.00 | 0.00 | 0.00 | 51 | 1010.8 |
| 20260508224537 | 65 | 135 | 0.0 | 0.0 | 0.00 | 0.00 | 0.00 | 53 | 1010.9 |
| 20260508223006 | 64 | 135 | 0.0 | 0.0 | 0.00 | 0.00 | 0.00 | 52 | 1010.8 |
| 20260508221503 | 64 | 135 | 0.0 | 0.0 | 0.00 | 0.00 | 0.00 | 53 | 1010.8 |
| 20260508220123 | 64 | 135 | 0.0 | 1.0 | 0.00 | 0.00 | 0.00 | 49 | 1011.0 |
| 20260508214600 | 64 | 135 | 0.0 | 4.0 | 0.00 | 0.00 | 0.00 | 49 | 1011.0 |
| 20260508213101 | 65 | 135 | 0.0 | 1.0 | 0.00 | 0.00 | 0.00 | 47 | 1010.9 |
| 20260508211558 | 65 | 136 | 0.0 | 0.0 | 0.00 | 0.00 | 0.00 | 49 | 1010.7 |
| 20260508210058 | 65 | 135 | 0.0 | 3.0 | 0.00 | 0.00 | 0.00 | 48 | 1010.9 |
| 20260508204604 | 65 | 135 | 0.0 | 0.0 | 0.00 | 0.00 | 0.00 | 49 | 1010.8 |
| 20260508203054 | 64 | 135 | 0.0 | 1.0 | 0.00 | 0.00 | 0.00 | 47 | 1011.0 |
| 20260508201553 | 65 | 135 | 0.0 | 0.0 | 0.00 | 0.00 | 0.00 | 44 | 1011.2 |
| 20260508200051 | 66 | 135 | 0.0 | 3.0 | 0.00 | 0.00 | 0.00 | 46 | 1011.1 |
| 20260508194549 | 68 | 135 | 0.0 | 1.0 | 0.00 | 0.00 | 0.00 | 44 | 1011.1 |
| 20260508193052 | 67 | 135 | 0.0 | 9.0 | 0.00 | 0.00 | 0.00 | 45 | 1011.2 |
| 20260508191547 | 65 | 135 | 0.0 | 8.0 | 0.00 | 0.00 | 0.00 | 45 | 1011.4 |
| 20260508190058 | 66 | 135 | 0.0 | 1.0 | 0.00 | 0.00 | 0.00 | 42 | 1011.5 |
| 20260508184549 | 66 | 135 | 0.0 | 0.0 | 0.00 | 0.00 | 0.00 | 45 | 1011.6 |
| 20260508183045 | 67 | 134 | 0.0 | 4.0 | 0.00 | 0.00 | 0.00 | 43 | 1011.6 |
| 20260508181602 | 70 | 134 | 0.0 | 3.0 | 0.00 | 0.00 | 0.00 | 41 | 1011.7 |
| 20260508180047 | 68 | 134 | 0.0 | 4.0 | 0.00 | 0.00 | 0.00 | 43 | 1011.9 |
| 20260508174521 | 68 | 134 | 0.0 | 6.0 | 0.00 | 0.00 | 0.00 | 44 | 1012.1 |
| 20260508173007 | 67 | 134 | 0.0 | 1.0 | 0.00 | 0.00 | 0.00 | 50 | 1012.2 |
| 20260508171505 | 68 | 134 | 0.0 | 2.0 | 0.00 | 0.00 | 0.00 | 49 | 1012.4 |
| 20260508170003 | 68 | 134 | 0.0 | 1.0 | 0.00 | 0.00 | 0.00 | 48 | 1012.8 |
| 20260508164601 | 66 | 134 | 0.0 | 1.0 | 0.00 | 0.00 | 0.00 | 48 | 1012.9 |
| 20260508163058 | 65 | 134 | 0.0 | 1.0 | 0.00 | 0.00 | 0.00 | 54 | 1013.2 |